マヘ島 の空港の天気 - METARとTAF

セーシェル国際空港 ( FSIA / SEZ ) - セーシェル マヘ島
飛行場実況気象(Metar)
観測時間02/17 18:00 SCT (02/17 14:00 UTC)
風向・風速不定 1m/s
視程10km以上
天気現象
少しの雲 雲底高度 610m
少しの雲 雲底高度 760m
気温28℃
湿度79%
気圧1011hPa
METARFSIA 171400Z VRB02KT 9999 FEW020CB FEW025 28/24 Q1011 NOSIG
過去の天気等 Google飛行場航空写真 Wunderground天気予報

過去48時間のMETAR

飛行場予報(TAF)
発表時間: 2/17 15:06 SCT (2/17 11:06 UTC)
予報対象時間: 17日16時 SCT ~ 18日16時 SCT
風向・風速北北東 4m/s
視程10km以上
全天の4割程度の雲 雲底高度 670m
17日16時 SCT ~ 18日6時 SCT に一時的に
視程8000m
天気現象しゅう雨
少しの積乱雲 雲底高度 490m
全天の8割程度の雲 雲底高度 550m
17日22時 SCT ~ 17日24時 SCT に徐々に
風向・風速不定 2m/s
TAF FSIA 171106Z 1712/1812 02007KT 9999 SCT022
TEMPO 1712/1802 8000 SHRA FEW016CB BKN018
BECMG 1718/1720 VRB03KT